Time;durP1;ratioP1;P1;durP2;ratioP2;P2;SDS_P1;SDS_P2;PMS_P1;PMS_P2;Temp;Humidity;BMP_temperature;BMP_pressure;BME280_temperature;BME280_humidity;BME280_pressure;Samples;Min_cycle;Max_cycle;Signal;HPM_P1;HPM_P2
2023/01/25 00:02:21;;;;;;;55.42;39.83;;;1.00;99.90;;;;;;7372014;19;20746;-60
2023/01/25 00:04:48;;;;;;;55.70;39.70;;;1.00;99.90;;;;;;7373428;19;20015;-60
2023/01/25 00:07:14;;;;;;;59.95;42.70;;;1.00;99.90;;;;;;7374328;19;20014;-60
2023/01/25 00:09:40;;;;;;;60.75;42.13;;;1.00;99.90;;;;;;7369910;19;20046;-60
2023/01/25 00:12:06;;;;;;;60.42;40.78;;;1.00;99.90;;;;;;7372639;19;20933;-60
2023/01/25 00:14:33;;;;;;;56.22;40.33;;;1.00;99.90;;;;;;7368076;19;20018;-60
2023/01/25 00:16:59;;;;;;;60.05;40.90;;;1.00;99.90;;;;;;7370864;19;20019;-60
2023/01/25 00:19:25;;;;;;;56.88;41.38;;;1.00;99.90;;;;;;7368981;19;20474;-60
2023/01/25 00:21:51;;;;;;;62.50;42.95;;;1.00;99.90;;;;;;7371203;19;20014;-60
2023/01/25 00:24:17;;;;;;;59.53;41.75;;;0.90;99.90;;;;;;7370655;19;20673;-60
2023/01/25 00:26:43;;;;;;;56.47;41.50;;;0.90;99.90;;;;;;7369229;19;20019;-60
2023/01/25 00:29:12;;;;;;;62.45;44.20;;;0.90;99.90;;;;;;7370053;19;20025;-60
2023/01/25 00:31:55;;;;;;;61.60;43.53;;;0.90;99.90;;;;;;7369392;19;20370;-60
2023/01/25 00:34:24;;;;;;;59.70;42.03;;;0.90;99.90;;;;;;7366084;19;20018;-60
2023/01/25 00:36:51;;;;;;;59.70;42.60;;;0.90;99.90;;;;;;7369776;19;20018;-60
2023/01/25 00:39:17;;;;;;;63.53;43.80;;;0.90;99.90;;;;;;7368897;19;20460;-62
2023/01/25 00:41:45;;;;;;;55.72;42.03;;;0.90;99.90;;;;;;7367781;19;20018;-63
2023/01/25 00:44:11;;;;;;;62.67;43.05;;;0.90;99.90;;;;;;7367755;19;20027;-63
2023/01/25 00:46:38;;;;;;;61.47;42.30;;;0.90;99.90;;;;;;7363777;19;20114;-63
2023/01/25 00:49:05;;;;;;;57.88;41.63;;;0.90;99.90;;;;;;7372987;19;20050;-64
2023/01/25 00:51:32;;;;;;;63.28;43.97;;;0.90;99.90;;;;;;7366211;19;20022;-63
2023/01/25 00:53:59;;;;;;;60.63;43.28;;;0.90;99.90;;;;;;7367406;19;20121;-63
2023/01/25 00:56:25;;;;;;;59.30;42.90;;;0.80;99.90;;;;;;7364070;19;20062;-63
2023/01/25 00:58:52;;;;;;;58.25;43.40;;;0.80;99.90;;;;;;7367383;19;20022;-64
2023/01/25 01:01:19;;;;;;;59.90;44.08;;;0.80;99.90;;;;;;7365554;19;20030;-63
2023/01/25 01:03:45;;;;;;;60.30;43.70;;;0.80;99.90;;;;;;7369780;19;20576;-64
2023/01/25 01:06:13;;;;;;;59.53;42.80;;;0.80;99.90;;;;;;7368720;19;20369;-63
2023/01/25 01:08:40;;;;;;;58.13;42.55;;;0.70;99.90;;;;;;7368433;19;20592;-63
2023/01/25 01:11:09;;;;;;;60.35;42.40;;;0.70;99.90;;;;;;7364487;19;20381;-63
2023/01/25 01:13:36;;;;;;;65.57;44.70;;;0.80;99.90;;;;;;7367359;19;20018;-63
2023/01/25 01:16:06;;;;;;;65.50;43.83;;;0.80;99.90;;;;;;7368041;19;20098;-62
2023/01/25 01:18:39;;;;;;;60.80;43.97;;;0.80;99.90;;;;;;7366379;19;20033;-63
2023/01/25 01:21:06;;;;;;;59.28;42.45;;;0.80;99.90;;;;;;7371692;19;20015;-63
2023/01/25 01:23:33;;;;;;;57.05;40.83;;;0.80;99.90;;;;;;7369073;19;20499;-63
2023/01/25 01:26:05;;;;;;;63.63;43.53;;;0.80;99.90;;;;;;7366544;19;20132;-62
2023/01/25 01:28:34;;;;;;;63.35;43.67;;;0.80;99.90;;;;;;7366829;19;20449;-64
2023/01/25 01:31:14;;;;;;;61.10;44.22;;;0.80;99.90;;;;;;7369455;19;20014;-62
2023/01/25 01:33:50;;;;;;;63.03;46.30;;;0.80;99.90;;;;;;7364533;19;20018;-63
2023/01/25 01:36:18;;;;;;;61.53;43.23;;;0.80;99.90;;;;;;7364352;19;20374;-63
2023/01/25 01:38:45;;;;;;;60.47;43.78;;;0.70;99.90;;;;;;7365740;19;20053;-62
2023/01/25 01:41:12;;;;;;;60.38;42.38;;;0.80;99.90;;;;;;7365311;19;20057;-63
2023/01/25 01:43:38;;;;;;;61.92;43.47;;;0.70;99.90;;;;;;7360549;19;20450;-63
2023/01/25 01:46:36;;;;;;;59.78;42.47;;;0.80;99.90;;;;;;7361535;19;20022;-59
2023/01/25 01:49:25;;;;;;;62.85;43.08;;;0.80;99.90;;;;;;7367716;19;20035;-60
2023/01/25 01:52:02;;;;;;;64.47;44.40;;;0.80;99.90;;;;;;7366003;19;20018;-60
2023/01/25 01:54:48;;;;;;;65.65;45.10;;;0.80;99.90;;;;;;7364964;19;20102;-60
2023/01/25 01:57:23;;;;;;;60.60;41.97;;;0.80;99.90;;;;;;7367636;19;20569;-60
2023/01/25 01:59:55;;;;;;;59.28;42.60;;;0.80;99.90;;;;;;7368397;19;20102;-59
2023/01/25 02:02:23;;;;;;;59.40;42.30;;;0.80;99.90;;;;;;7363123;19;20504;-60
2023/01/25 02:04:52;;;;;;;59.35;41.80;;;0.80;99.90;;;;;;7363357;19;20018;-59
2023/01/25 02:07:39;;;;;;;59.20;41.30;;;0.80;99.90;;;;;;7363862;19;20032;-59
2023/01/25 02:10:10;;;;;;;57.10;40.92;;;0.70;99.90;;;;;;7369568;19;20025;-59
2023/01/25 02:12:38;;;;;;;59.65;41.58;;;0.70;99.90;;;;;;7367669;19;20500;-59
2023/01/25 02:15:07;;;;;;;55.40;39.13;;;0.70;99.90;;;;;;7367268;19;20038;-59
2023/01/25 02:17:37;;;;;;;57.70;40.20;;;0.60;99.90;;;;;;7363536;19;20390;-59
2023/01/25 02:20:21;;;;;;;55.72;40.10;;;0.60;99.90;;;;;;7367777;19;20014;-59
2023/01/25 02:22:52;;;;;;;53.05;38.63;;;0.50;99.90;;;;;;7367778;19;20014;-60
2023/01/25 02:25:18;;;;;;;56.03;40.42;;;0.50;99.90;;;;;;7366831;19;20032;-59
2023/01/25 02:27:52;;;;;;;56.08;40.65;;;0.50;99.90;;;;;;7366842;19;20032;-59
2023/01/25 02:30:19;;;;;;;54.10;40.28;;;0.50;99.90;;;;;;7369082;19;20034;-59
2023/01/25 02:32:45;;;;;;;54.38;38.97;;;0.50;99.90;;;;;;7367226;19;20435;-59
2023/01/25 02:35:34;;;;;;;57.40;41.20;;;0.50;99.90;;;;;;7364874;19;20055;-59
2023/01/25 02:38:01;;;;;;;53.47;40.80;;;0.50;99.90;;;;;;7365796;19;20023;-62
2023/01/25 02:40:30;;;;;;;56.92;41.20;;;0.40;99.90;;;;;;7365345;19;20450;-64
2023/01/25 02:42:57;;;;;;;54.65;40.22;;;0.50;99.90;;;;;;7366071;19;20019;-62
2023/01/25 02:45:28;;;;;;;55.55;40.67;;;0.40;99.90;;;;;;7360801;19;20026;-60
2023/01/25 02:47:54;;;;;;;56.60;39.95;;;0.40;99.90;;;;;;7358275;19;20042;-59
2023/01/25 02:50:21;;;;;;;54.00;38.40;;;0.40;99.90;;;;;;7361191;19;20434;-63
2023/01/25 02:52:47;;;;;;;59.28;42.13;;;0.40;99.90;;;;;;7366513;19;20508;-63
2023/01/25 02:55:14;;;;;;;59.42;41.60;;;0.40;99.90;;;;;;7361645;19;20018;-63
2023/01/25 02:57:43;;;;;;;59.03;41.92;;;0.50;99.90;;;;;;7364208;19;20024;-59
2023/01/25 03:00:10;;;;;;;59.05;42.80;;;0.50;99.90;;;;;;7358640;19;20082;-59
2023/01/25 03:02:36;;;;;;;55.75;41.30;;;0.40;99.90;;;;;;7362939;19;20018;-59
2023/01/25 03:05:03;;;;;;;62.47;43.17;;;0.40;99.90;;;;;;7364936;19;20053;-59
2023/01/25 03:07:29;;;;;;;57.78;41.80;;;0.50;99.90;;;;;;7362102;19;20055;-62
2023/01/25 03:09:55;;;;;;;60.33;42.53;;;0.50;99.90;;;;;;7360161;19;20690;-62
2023/01/25 03:12:21;;;;;;;62.67;44.22;;;0.40;99.90;;;;;;7361274;19;20018;-64
2023/01/25 03:14:48;;;;;;;60.13;43.47;;;0.40;99.90;;;;;;7361054;19;20022;-62
2023/01/25 03:17:14;;;;;;;61.28;42.13;;;0.40;99.90;;;;;;7368277;19;20924;-59
2023/01/25 03:19:40;;;;;;;61.10;43.78;;;0.40;99.90;;;;;;7368233;19;20023;-59
2023/01/25 03:22:08;;;;;;;60.55;43.72;;;0.40;99.90;;;;;;7367950;19;20989;-62
2023/01/25 03:24:34;;;;;;;60.33;43.63;;;0.40;99.90;;;;;;7366623;19;20025;-59
2023/01/25 03:27:12;;;;;;;60.78;42.42;;;0.40;99.90;;;;;;7370063;19;20863;-60
2023/01/25 03:30:01;;;;;;;62.58;42.70;;;0.40;99.90;;;;;;7369682;19;20022;-59
2023/01/25 03:32:31;;;;;;;59.80;41.10;;;0.40;99.90;;;;;;7371436;19;20057;-59
2023/01/25 03:35:03;;;;;;;57.97;41.17;;;0.40;99.90;;;;;;7367760;19;20019;-63
2023/01/25 03:37:30;;;;;;;57.65;40.10;;;0.40;99.90;;;;;;7373002;19;20545;-59
2023/01/25 03:39:57;;;;;;;58.40;41.28;;;0.40;99.90;;;;;;7370162;19;20908;-60
2023/01/25 03:42:23;;;;;;;55.97;38.42;;;0.40;99.90;;;;;;7372631;19;20375;-60
2023/01/25 03:44:54;;;;;;;63.23;43.63;;;0.40;99.90;;;;;;7368324;19;20010;-59
2023/01/25 03:47:21;;;;;;;58.42;42.45;;;0.40;99.90;;;;;;7369840;19;20293;-62
2023/01/25 03:49:48;;;;;;;61.55;41.95;;;0.40;99.90;;;;;;7370693;19;20018;-62
2023/01/25 03:52:17;;;;;;;62.00;43.42;;;0.40;99.90;;;;;;7369960;19;20026;-62
2023/01/25 03:54:46;;;;;;;63.00;42.78;;;0.40;99.90;;;;;;7365645;19;20378;-63
2023/01/25 03:57:13;;;;;;;62.45;43.10;;;0.50;99.90;;;;;;7363959;19;20015;-63
2023/01/25 03:59:58;;;;;;;62.20;43.03;;;0.50;99.90;;;;;;7366813;19;20035;-63
2023/01/25 04:02:25;;;;;;;58.97;42.53;;;0.50;99.90;;;;;;7367642;19;20026;-63
2023/01/25 04:04:51;;;;;;;56.72;40.33;;;0.50;99.90;;;;;;7367353;19;20023;-62
2023/01/25 04:07:20;;;;;;;51.53;37.08;;;0.50;99.90;;;;;;7366246;19;20022;-62
2023/01/25 04:09:49;;;;;;;57.03;39.97;;;0.50;99.90;;;;;;7368162;19;20031;-62
2023/01/25 04:12:16;;;;;;;54.10;39.30;;;0.40;99.90;;;;;;7366795;19;20797;-59
2023/01/25 04:14:43;;;;;;;55.33;38.83;;;0.40;99.90;;;;;;7368409;19;20030;-59
2023/01/25 04:17:09;;;;;;;53.70;37.65;;;0.40;99.90;;;;;;7366512;19;20018;-62
2023/01/25 04:19:48;;;;;;;55.30;38.17;;;0.40;99.90;;;;;;7368840;19;21072;-62
2023/01/25 04:22:18;;;;;;;49.97;37.00;;;0.40;99.90;;;;;;7367129;19;20480;-59
2023/01/25 04:24:47;;;;;;;54.05;37.35;;;0.40;99.90;;;;;;7367404;19;20020;-59
2023/01/25 04:27:13;;;;;;;52.95;39.15;;;0.40;99.90;;;;;;7367391;19;20035;-59
2023/01/25 04:29:52;;;;;;;54.42;37.28;;;0.40;99.90;;;;;;7368186;19;20019;-60
2023/01/25 04:32:20;;;;;;;53.15;38.78;;;0.30;99.90;;;;;;7368337;19;20057;-63
2023/01/25 04:34:47;;;;;;;50.63;37.10;;;0.40;99.90;;;;;;7369226;19;20022;-63
2023/01/25 04:37:16;;;;;;;50.22;37.03;;;0.30;99.90;;;;;;7363759;19;20038;-64
2023/01/25 04:39:56;;;;;;;50.15;37.45;;;0.30;99.90;;;;;;7368194;19;20480;-62
2023/01/25 04:42:22;;;;;;;49.65;37.50;;;0.30;99.90;;;;;;7367661;19;20019;-63
2023/01/25 04:44:53;;;;;;;50.25;36.15;;;0.30;99.90;;;;;;7369333;19;20018;-59
2023/01/25 04:47:19;;;;;;;50.28;36.92;;;0.30;99.90;;;;;;7363144;19;20022;-60
2023/01/25 04:49:46;;;;;;;52.28;37.17;;;0.30;99.90;;;;;;7365835;19;20025;-63
2023/01/25 04:52:15;;;;;;;49.67;35.95;;;0.30;99.90;;;;;;7368462;19;20081;-63
2023/01/25 04:54:41;;;;;;;49.35;35.67;;;0.30;99.90;;;;;;7366674;19;20022;-63
2023/01/25 04:57:07;;;;;;;51.83;37.35;;;0.30;99.90;;;;;;7369097;19;20022;-59
2023/01/25 04:59:34;;;;;;;50.17;35.25;;;0.30;99.90;;;;;;7365508;19;20629;-62
2023/01/25 05:02:01;;;;;;;49.97;35.28;;;0.30;99.90;;;;;;7365064;19;20624;-60
2023/01/25 05:04:27;;;;;;;48.15;34.70;;;0.30;99.90;;;;;;7367788;19;20018;-63
2023/01/25 05:06:53;;;;;;;53.13;37.20;;;0.30;99.90;;;;;;7362500;19;20178;-60
2023/01/25 05:09:20;;;;;;;51.60;35.42;;;0.30;99.90;;;;;;7365360;19;20028;-63
2023/01/25 05:11:46;;;;;;;53.83;37.97;;;0.30;99.90;;;;;;7364892;19;20033;-63
2023/01/25 05:14:21;;;;;;;52.15;38.70;;;0.30;99.90;;;;;;7366013;19;20443;-62
2023/01/25 05:16:49;;;;;;;52.47;37.25;;;0.40;99.90;;;;;;7364725;19;20018;-62
2023/01/25 05:19:15;;;;;;;53.08;36.90;;;0.40;99.90;;;;;;7362706;19;20433;-63
2023/01/25 05:22:16;;;;;;;49.97;35.83;;;0.40;99.90;;;;;;7366780;19;20018;-63
2023/01/25 05:24:47;;;;;;;53.40;37.08;;;0.30;99.90;;;;;;7363964;19;20025;-63
2023/01/25 05:27:18;;;;;;;51.35;36.72;;;0.30;99.90;;;;;;7361163;19;20053;-63
2023/01/25 05:29:53;;;;;;;53.53;37.47;;;0.40;99.90;;;;;;7361523;19;20018;-59
2023/01/25 05:32:23;;;;;;;53.80;36.63;;;0.30;99.90;;;;;;7357164;19;20388;-59
2023/01/25 05:34:50;;;;;;;51.70;36.45;;;0.30;99.90;;;;;;7359094;19;20037;-59
2023/01/25 05:37:19;;;;;;;54.20;37.88;;;0.30;99.90;;;;;;7359403;19;20022;-63
2023/01/25 05:39:48;;;;;;;54.92;37.60;;;0.20;99.90;;;;;;7353994;19;20026;-65
2023/01/25 05:42:17;;;;;;;52.58;37.45;;;0.20;99.90;;;;;;7357242;19;20592;-60
2023/01/25 05:44:44;;;;;;;55.17;38.03;;;0.20;99.90;;;;;;7359043;19;20084;-60
2023/01/25 05:47:15;;;;;;;55.88;39.70;;;0.20;99.90;;;;;;7356618;19;20776;-63
2023/01/25 05:49:42;;;;;;;55.22;38.72;;;0.10;99.90;;;;;;7356693;19;20668;-60
2023/01/25 05:52:16;;;;;;;54.60;38.17;;;0.20;99.90;;;;;;7356685;19;20078;-60
2023/01/25 05:54:42;;;;;;;;;;;0.20;99.90;;;;;;7359779;19;20050;-60
2023/01/25 05:57:13;;;;;;;58.15;37.10;;;0.30;99.90;;;;;;7359076;19;19930;-60
2023/01/25 05:59:40;;;;;;;56.95;39.83;;;0.20;99.90;;;;;;7359654;19;20037;-60
2023/01/25 06:02:09;;;;;;;55.88;37.55;;;0.20;99.90;;;;;;7353157;19;20406;-63
2023/01/25 06:04:35;;;;;;;55.75;37.70;;;0.20;99.90;;;;;;7359540;19;20022;-63
2023/01/25 06:07:02;;;;;;;57.75;40.50;;;0.20;99.90;;;;;;7356751;19;20022;-60
2023/01/25 06:09:28;;;;;;;56.75;37.20;;;0.30;99.90;;;;;;7358391;19;20467;-63
2023/01/25 06:11:54;;;;;;;59.85;41.45;;;0.30;99.90;;;;;;7357043;19;20351;-63
2023/01/25 06:14:22;;;;;;;62.15;41.95;;;0.30;99.90;;;;;;7356465;19;20485;-63
2023/01/25 06:16:49;;;;;;;59.55;40.35;;;0.30;99.90;;;;;;7352206;19;20022;-63
2023/01/25 06:19:33;;;;;;;60.40;40.67;;;0.30;99.90;;;;;;7355815;19;20046;-63
2023/01/25 06:22:10;;;;;;;60.90;41.53;;;0.30;99.90;;;;;;7355390;19;20318;-64
2023/01/25 06:24:39;;;;;;;61.35;42.22;;;0.30;99.90;;;;;;7353759;19;20485;-66
2023/01/25 06:27:06;;;;;;;62.28;42.08;;;0.30;99.90;;;;;;7354940;19;20018;-63
2023/01/25 06:29:32;;;;;;;57.53;40.28;;;0.30;99.90;;;;;;7355724;19;20027;-63
2023/01/25 06:31:59;;;;;;;59.92;40.03;;;0.30;99.90;;;;;;7356739;19;20021;-64
2023/01/25 06:34:25;;;;;;;59.30;40.80;;;0.30;99.90;;;;;;7357220;19;21095;-64
2023/01/25 06:36:53;;;;;;;58.90;39.60;;;0.30;99.90;;;;;;7359899;19;20434;-63
2023/01/25 06:39:19;;;;;;;57.67;36.97;;;0.30;99.90;;;;;;7357720;19;20105;-65
2023/01/25 06:41:46;;;;;;;55.97;38.13;;;0.30;99.90;;;;;;7357683;19;20019;-64
2023/01/25 06:44:12;;;;;;;56.08;39.03;;;0.30;99.90;;;;;;7359036;19;20014;-63
2023/01/25 06:46:39;;;;;;;54.30;38.75;;;0.30;99.90;;;;;;7353581;19;20022;-64
2023/01/25 06:49:05;;;;;;;59.38;40.45;;;0.30;99.90;;;;;;7361045;19;20377;-63
2023/01/25 06:51:32;;;;;;;57.53;37.92;;;0.30;99.90;;;;;;7362556;19;20156;-60
2023/01/25 06:54:01;;;;;;;54.30;38.00;;;0.30;99.90;;;;;;7365113;19;20026;-59
2023/01/25 06:56:28;;;;;;;54.17;37.47;;;0.20;99.90;;;;;;7365927;19;20114;-60
2023/01/25 06:58:57;;;;;;;53.72;36.70;;;0.20;99.90;;;;;;7362460;19;20022;-59
2023/01/25 07:01:29;;;;;;;55.88;38.60;;;0.20;99.90;;;;;;7359795;19;20051;-60
2023/01/25 07:03:57;;;;;;;51.22;33.90;;;0.10;99.90;;;;;;7370217;19;20026;-66
2023/01/25 07:06:29;;;;;;;52.50;36.25;;;0.20;99.90;;;;;;7366297;19;20026;-64
2023/01/25 07:09:00;;;;;;;;;;;0.10;99.90;;;;;;7367323;19;20018;-67
2023/01/25 07:11:26;;;;;;;51.08;36.13;;;0.20;99.90;;;;;;7362553;19;19930;-64
2023/01/25 07:13:52;;;;;;;51.83;35.42;;;0.10;99.90;;;;;;7364020;19;20605;-64
2023/01/25 07:16:20;;;;;;;53.78;37.03;;;0.10;99.90;;;;;;7360009;19;20299;-64
2023/01/25 07:18:47;;;;;;;54.92;37.22;;;0.10;99.90;;;;;;7368065;19;20018;-64
2023/01/25 07:21:16;;;;;;;54.03;37.95;;;0.00;99.90;;;;;;7364372;19;20014;-66
2023/01/25 07:23:43;;;;;;;55.05;36.92;;;0.10;99.90;;;;;;7365720;19;20025;-63
2023/01/25 07:26:16;;;;;;;55.80;37.63;;;0.10;99.90;;;;;;7363692;19;20018;-64
2023/01/25 07:28:44;;;;;;;57.42;38.60;;;0.10;99.90;;;;;;7365037;19;20010;-64
2023/01/25 07:31:11;;;;;;;57.17;37.08;;;0.10;99.90;;;;;;7364257;19;20018;-59
2023/01/25 07:33:40;;;;;;;53.38;36.90;;;0.10;99.90;;;;;;7367838;19;20029;-60
2023/01/25 07:36:08;;;;;;;54.42;38.03;;;0.10;99.90;;;;;;7363869;19;20046;-60
2023/01/25 07:38:35;;;;;;;54.58;37.22;;;0.10;99.90;;;;;;7365740;19;20835;-60
2023/01/25 07:41:02;;;;;;;55.47;37.13;;;0.10;99.90;;;;;;7363165;19;20018;-60
2023/01/25 07:43:29;;;;;;;56.20;39.03;;;0.10;99.90;;;;;;7361548;19;20501;-64
2023/01/25 07:46:01;;;;;;;57.60;38.83;;;0.10;99.90;;;;;;7361013;19;20120;-60
2023/01/25 07:48:28;;;;;;;55.43;38.60;;;0.20;99.90;;;;;;7368502;19;20792;-59
2023/01/25 07:51:21;;;;;;;54.72;36.53;;;0.20;99.90;;;;;;7361907;19;20727;-64
2023/01/25 07:53:53;;;;;;;58.40;39.05;;;0.10;99.90;;;;;;7362794;19;20387;-64
2023/01/25 07:56:23;;;;;;;57.35;38.17;;;0.10;99.90;;;;;;7367580;19;20382;-60
2023/01/25 07:58:53;;;;;;;58.10;39.42;;;0.10;99.90;;;;;;7363449;19;20078;-64
2023/01/25 08:01:21;;;;;;;54.42;35.75;;;0.10;99.90;;;;;;7364441;19;20497;-63
2023/01/25 08:03:50;;;;;;;55.60;37.35;;;0.10;99.90;;;;;;7356198;19;20015;-63
2023/01/25 08:06:16;;;;;;;55.35;38.22;;;0.10;99.90;;;;;;7364185;19;20015;-65
2023/01/25 08:08:47;;;;;;;56.10;38.60;;;0.10;99.90;;;;;;7365024;19;20026;-64
2023/01/25 08:11:17;;;;;;;52.60;36.53;;;0.10;99.90;;;;;;7365599;19;20022;-64
2023/01/25 08:13:48;;;;;;;59.20;39.15;;;0.00;99.90;;;;;;7359649;19;20029;-60
2023/01/25 08:16:20;;;;;;;55.42;37.47;;;0.00;99.90;;;;;;7365475;19;20018;-59
2023/01/25 08:18:55;;;;;;;54.42;38.13;;;0.00;99.90;;;;;;7363319;19;20011;-64
2023/01/25 08:21:24;;;;;;;57.90;37.63;;;0.00;99.90;;;;;;7361623;19;20485;-63
2023/01/25 08:23:50;;;;;;;60.00;39.72;;;0.10;99.90;;;;;;7365661;19;20423;-63
2023/01/25 08:26:17;;;;;;;55.92;37.20;;;0.10;99.90;;;;;;7363772;19;20010;-64
2023/01/25 08:28:43;;;;;;;55.88;37.58;;;0.10;99.90;;;;;;7363725;19;20025;-64
2023/01/25 08:31:13;;;;;;;55.40;36.80;;;0.10;99.90;;;;;;7365911;19;20473;-59
2023/01/25 08:33:41;;;;;;;57.85;40.10;;;0.10;99.90;;;;;;7365229;19;20074;-64
2023/01/25 08:36:09;;;;;;;57.17;39.42;;;0.10;99.90;;;;;;7365446;19;20021;-64
2023/01/25 08:38:35;;;;;;;54.67;37.42;;;0.10;99.90;;;;;;7360896;19;20051;-64
2023/01/25 08:41:20;;;;;;;59.20;38.40;;;0.00;99.90;;;;;;7363582;19;20010;-64
2023/01/25 08:43:46;;;;;;;54.97;37.65;;;0.00;99.90;;;;;;7359487;19;20025;-64
2023/01/25 08:46:14;;;;;;;57.97;37.67;;;0.00;99.90;;;;;;7359316;19;20070;-64
2023/01/25 08:48:40;;;;;;;58.15;38.00;;;0.10;99.90;;;;;;7361093;19;20023;-64
2023/01/25 08:51:10;;;;;;;61.78;41.15;;;0.10;99.90;;;;;;7363012;19;20019;-63
2023/01/25 08:53:37;;;;;;;58.58;39.25;;;0.00;99.90;;;;;;7361426;19;20321;-63
2023/01/25 08:56:05;;;;;;;62.13;40.65;;;0.00;99.90;;;;;;7359790;19;20039;-64
2023/01/25 08:58:32;;;;;;;61.20;40.85;;;0.10;99.90;;;;;;7362585;19;20014;-64
2023/01/25 09:01:07;;;;;;;59.28;37.47;;;0.10;99.90;;;;;;7355772;19;20472;-64
2023/01/25 09:03:35;;;;;;;59.17;39.45;;;0.00;99.90;;;;;;7359981;19;20022;-64
2023/01/25 09:06:03;;;;;;;60.92;39.67;;;0.00;99.90;;;;;;7360148;19;20551;-63
2023/01/25 09:08:29;;;;;;;57.17;37.17;;;0.00;99.90;;;;;;7360253;19;20574;-64
2023/01/25 09:11:01;;;;;;;57.60;37.05;;;0.00;99.90;;;;;;7362987;19;20014;-64
2023/01/25 09:13:27;;;;;;;58.50;39.50;;;0.00;99.90;;;;;;7358409;19;20018;-64
2023/01/25 09:16:02;;;;;;;62.15;40.35;;;0.10;99.90;;;;;;7358563;19;20019;-64
2023/01/25 09:18:30;;;;;;;62.13;39.20;;;0.10;99.90;;;;;;7359429;19;21295;-63
2023/01/25 09:20:57;;;;;;;60.20;39.08;;;0.10;99.90;;;;;;7362431;19;20015;-63
2023/01/25 09:23:24;;;;;;;60.92;40.40;;;0.10;99.90;;;;;;7362893;19;20022;-64
2023/01/25 09:25:57;;;;;;;59.38;37.38;;;0.20;99.90;;;;;;7358607;19;20332;-65
2023/01/25 09:28:24;;;;;;;54.35;35.58;;;0.10;99.90;;;;;;7360317;19;20266;-63
2023/01/25 09:30:59;;;;;;;55.83;37.40;;;0.00;99.90;;;;;;7360189;19;20394;-60
2023/01/25 09:33:39;;;;;;;55.22;38.30;;;0.00;99.90;;;;;;7361423;19;20014;-60
2023/01/25 09:36:06;;;;;;;58.95;38.47;;;0.10;99.90;;;;;;7365989;19;20022;-60
2023/01/25 09:38:33;;;;;;;59.42;38.20;;;0.10;99.90;;;;;;7359774;19;20439;-65
2023/01/25 09:41:08;;;;;;;55.72;36.15;;;0.20;99.90;;;;;;7363188;19;20021;-64
2023/01/25 09:43:45;;;;;;;55.35;35.20;;;0.20;99.90;;;;;;7357879;19;20508;-64
2023/01/25 09:46:29;;;;;;;51.45;33.95;;;0.20;99.90;;;;;;7362699;19;20464;-60
2023/01/25 09:49:04;;;;;;;50.83;32.70;;;0.10;99.90;;;;;;7361813;19;20332;-60
2023/01/25 09:51:50;;;;;;;55.30;35.95;;;0.10;99.90;;;;;;7361093;19;20097;-60
2023/01/25 09:54:18;;;;;;;49.95;33.08;;;0.10;99.90;;;;;;7361507;19;20606;-64
2023/01/25 09:56:48;;;;;;;49.58;32.53;;;0.10;99.90;;;;;;7360872;19;20045;-60
2023/01/25 09:59:17;;;;;;;51.38;32.00;;;0.10;99.90;;;;;;7363067;19;20700;-60
2023/01/25 10:02:01;;;;;;;53.53;33.47;;;0.00;99.90;;;;;;7359944;19;20025;-59
2023/01/25 10:04:34;;;;;;;50.15;32.42;;;0.10;99.90;;;;;;7360186;19;20018;-64
2023/01/25 10:07:26;;;;;;;53.55;34.83;;;0.00;99.90;;;;;;7358906;19;20033;-64
2023/01/25 10:09:55;;;;;;;53.17;35.57;;;0.00;99.90;;;;;;7362876;19;20038;-60
2023/01/25 10:12:24;;;;;;;54.08;36.95;;;0.00;99.90;;;;;;7357289;19;20035;-59
2023/01/25 10:14:51;;;;;;;54.28;36.38;;;0.00;99.90;;;;;;7363659;19;20045;-64
2023/01/25 10:17:37;;;;;;;49.95;34.75;;;0.10;99.90;;;;;;7360693;19;20027;-65
2023/01/25 10:20:25;;;;;;;53.10;34.95;;;0.10;99.90;;;;;;7360837;19;20034;-64
2023/01/25 10:23:17;;;;;;;56.03;34.45;;;0.10;99.90;;;;;;7357080;19;20331;-66
2023/01/25 10:25:49;;;;;;;55.33;34.63;;;0.20;99.90;;;;;;7361566;19;20017;-60
2023/01/25 10:28:34;;;;;;;;;;;0.20;99.90;;;;;;7370861;19;20018;-60
2023/01/25 10:31:15;;;;;;;49.17;31.55;;;0.20;99.90;;;;;;7368069;19;19929;-64
2023/01/25 10:33:43;;;;;;;54.03;32.35;;;0.20;99.90;;;;;;7368157;19;20018;-65
2023/01/25 10:36:28;;;;;;;51.17;33.65;;;0.20;99.90;;;;;;7369515;19;20015;-60
2023/01/25 10:38:59;;;;;;;52.58;33.83;;;0.20;99.90;;;;;;7368949;19;20354;-59
2023/01/25 10:41:35;;;;;;;48.58;31.40;;;0.10;99.90;;;;;;7363186;19;20041;-65
2023/01/25 10:47:06;;;;;;;50.15;34.20;;;0.10;99.90;;;;;;7367368;19;20687;-60
2023/01/25 10:49:42;;;;;;;47.20;31.25;;;0.10;99.90;;;;;;7367276;19;20018;-64
2023/01/25 10:52:24;;;;;;;50.92;34.00;;;0.10;99.90;;;;;;7365889;19;20019;-60
2023/01/25 10:55:14;;;;;;;50.40;30.67;;;0.20;99.90;;;;;;7372123;19;20695;-59
2023/01/25 10:57:43;;;;;;;;;;;0.20;99.90;;;;;;7364916;19;20010;-60
2023/01/25 11:00:19;;;;;;;50.97;32.58;;;0.20;99.90;;;;;;7369031;19;20267;-60
2023/01/25 11:02:47;;;;;;;51.50;33.15;;;0.10;99.90;;;;;;7364603;19;20037;-59
2023/01/25 11:05:31;;;;;;;56.40;35.58;;;0.20;99.90;;;;;;7365707;19;20028;-59
2023/01/25 11:08:20;;;;;;;54.30;33.20;;;0.20;99.90;;;;;;7369791;19;20086;-65
2023/01/25 11:10:46;;;;;;;54.08;34.67;;;0.20;99.90;;;;;;7367868;19;20019;-59
2023/01/25 11:13:12;;;;;;;58.22;34.45;;;0.10;99.90;;;;;;7366538;19;20070;-64
2023/01/25 11:15:49;;;;;;;53.08;33.90;;;0.10;99.90;;;;;;7360613;19;21073;-64
2023/01/25 11:18:28;;;;;;;56.42;35.78;;;0.10;99.90;;;;;;7366423;19;20652;-60
2023/01/25 11:21:11;;;;;;;56.97;34.03;;;0.10;99.90;;;;;;7366719;19;20021;-59
2023/01/25 11:23:37;;;;;;;56.72;32.70;;;0.20;99.90;;;;;;7363226;19;20014;-64
2023/01/25 11:26:18;;;;;;;59.03;35.28;;;0.20;99.90;;;;;;7366981;19;20010;-64
2023/01/25 11:28:47;;;;;;;59.70;36.38;;;0.20;99.90;;;;;;7359978;19;20015;-64
2023/01/25 11:31:20;;;;;;;60.22;38.78;;;0.20;99.90;;;;;;7366257;19;20395;-65
2023/01/25 11:33:47;;;;;;;64.53;36.08;;;0.20;99.90;;;;;;7362194;19;20789;-64
2023/01/25 11:36:31;;;;;;;66.57;38.45;;;0.30;99.90;;;;;;7365455;19;20374;-60
2023/01/25 11:39:09;;;;;;;56.80;34.22;;;0.20;99.90;;;;;;7362835;19;20467;-59
2023/01/25 11:42:00;;;;;;;58.20;34.95;;;0.20;99.90;;;;;;7363363;19;20035;-64
2023/01/25 11:44:38;;;;;;;57.83;35.58;;;0.20;99.90;;;;;;7364793;19;20027;-64
2023/01/25 11:47:45;;;;;;;59.72;35.17;;;0.20;99.90;;;;;;7363956;19;20371;-60
2023/01/25 11:50:35;;;;;;;54.38;32.35;;;0.20;99.90;;;;;;7359024;19;20576;-60
2023/01/25 11:53:17;;;;;;;60.88;34.80;;;0.20;99.90;;;;;;7363762;19;20380;-59
2023/01/25 11:55:43;;;;;;;52.58;33.42;;;0.20;99.90;;;;;;7361962;19;20599;-60
2023/01/25 11:58:36;;;;;;;57.10;34.83;;;0.20;99.90;;;;;;7364921;19;20482;-59
2023/01/25 12:01:27;;;;;;;55.15;35.53;;;0.20;99.90;;;;;;7362659;19;20457;-60
2023/01/25 12:04:36;;;;;;;59.20;33.97;;;0.20;99.90;;;;;;7364544;19;20445;-60
2023/01/25 12:07:06;;;;;;;55.03;33.88;;;0.20;99.90;;;;;;7367728;19;20145;-64
2023/01/25 12:09:33;;;;;;;58.72;34.97;;;0.20;99.90;;;;;;7365032;19;20022;-60
2023/01/25 12:12:11;;;;;;;58.25;34.75;;;0.20;99.90;;;;;;7367990;19;20043;-64
2023/01/25 12:14:55;;;;;;;53.13;32.60;;;0.20;99.90;;;;;;7360982;19;20018;-65
2023/01/25 12:17:25;;;;;;;54.58;32.15;;;0.20;99.90;;;;;;7363578;19;20022;-67
2023/01/25 12:20:14;;;;;;;60.42;33.20;;;0.20;99.90;;;;;;7357726;19;20462;-61
2023/01/25 12:23:11;;;;;;;60.17;32.80;;;0.20;99.90;;;;;;7357598;19;20623;-62
2023/01/25 12:25:40;;;;;;;60.90;34.15;;;0.20;99.90;;;;;;7359676;19;21280;-62
2023/01/25 12:28:26;;;;;;;59.70;33.00;;;0.20;99.90;;;;;;7361090;19;20636;-66
2023/01/25 12:31:07;;;;;;;57.35;30.77;;;0.10;99.90;;;;;;7360774;19;20014;-61
2023/01/25 12:33:58;;;;;;;59.00;31.27;;;0.10;99.90;;;;;;7356881;19;20349;-61
2023/01/25 12:36:35;;;;;;;61.35;31.13;;;0.20;99.90;;;;;;7356600;19;20482;-61
2023/01/25 12:39:16;;;;;;;64.78;32.53;;;0.20;99.90;;;;;;7357598;19;20529;-61
2023/01/25 12:41:43;;;;;;;60.88;32.78;;;0.20;99.90;;;;;;7356249;19;20030;-62
2023/01/25 12:44:34;;;;;;;52.75;29.40;;;0.20;99.90;;;;;;7362230;19;20019;-62
2023/01/25 12:47:12;;;;;;;58.17;31.77;;;0.10;99.90;;;;;;7360044;19;20488;-61
2023/01/25 12:49:50;;;;;;;59.47;30.30;;;0.10;99.90;;;;;;7359676;19;20026;-62
2023/01/25 12:52:43;;;;;;;56.92;31.33;;;0.10;99.90;;;;;;7358555;19;20410;-62
2023/01/25 12:55:14;;;;;;;58.03;29.95;;;0.10;99.90;;;;;;7357386;19;20407;-62
2023/01/25 12:57:49;;;;;;;65.20;33.78;;;0.00;99.90;;;;;;7358092;19;20018;-61
2023/01/25 13:00:22;;;;;;;61.63;31.73;;;0.00;99.90;;;;;;7357604;19;20046;-61
2023/01/25 13:03:10;;;;;;;69.78;33.75;;;0.00;99.90;;;;;;7355338;19;20077;-61
2023/01/25 13:05:53;;;;;;;65.38;32.08;;;0.00;99.90;;;;;;7356525;19;20612;-60